createdAt,value
2022-11-22T00:01:30.907Z,99178.34
2022-11-22T00:04:00.087Z,99178.46
2022-11-22T00:06:29.053Z,99178.14
2022-11-22T00:08:58.213Z,99181.25
2022-11-22T00:11:29.456Z,99181.89
2022-11-22T00:14:00.041Z,99190.53
2022-11-22T00:16:29.622Z,99199.10
2022-11-22T00:19:01.263Z,99201.02
2022-11-22T00:21:30.736Z,99207.00
2022-11-22T00:24:00.067Z,99208.45
2022-11-22T00:26:29.056Z,99210.61
2022-11-22T00:28:59.073Z,99209.58
2022-11-22T00:31:28.325Z,99206.16
2022-11-22T00:33:57.554Z,99206.75
2022-11-22T00:36:27.180Z,99202.65
2022-11-22T00:38:57.502Z,99200.48
2022-11-22T00:41:27.726Z,99199.10
2022-11-22T00:43:57.732Z,99197.74
2022-11-22T00:46:28.751Z,99196.66
2022-11-22T00:48:58.455Z,99189.85
2022-11-22T00:51:29.567Z,99188.84
2022-11-22T00:53:59.315Z,99192.21
2022-11-22T00:56:28.091Z,99198.58
2022-11-22T00:58:56.725Z,99194.64
2022-11-22T01:01:27.287Z,99201.29
2022-11-22T01:03:57.857Z,99206.94
2022-11-22T01:06:29.036Z,99210.55
2022-11-22T01:09:00.105Z,99218.59
2022-11-22T01:11:29.506Z,99221.20
2022-11-22T01:14:01.127Z,99225.86
2022-11-22T01:16:30.545Z,99223.00
2022-11-22T01:18:59.180Z,99220.30
2022-11-22T01:21:27.947Z,99219.51
2022-11-22T01:23:56.685Z,99221.21
2022-11-22T01:26:26.024Z,99226.23
2022-11-22T01:28:54.804Z,99224.95
2022-11-22T01:31:24.007Z,99224.04
2022-11-22T01:33:54.003Z,99225.04
2022-11-22T01:36:23.591Z,99228.70
2022-11-22T01:38:54.495Z,99233.73
2022-11-22T01:41:23.835Z,99236.20
2022-11-22T01:43:53.338Z,99239.53
2022-11-22T01:46:38.076Z,99242.25
2022-11-22T01:49:29.406Z,99236.71
2022-11-22T01:52:06.234Z,99236.64
2022-11-22T01:54:40.697Z,99243.34
2022-11-22T01:57:15.546Z,99255.54
2022-11-22T01:59:57.005Z,99258.45
2022-11-22T02:02:26.175Z,99260.29
2022-11-22T02:04:58.094Z,99265.27
2022-11-22T02:07:34.506Z,99264.90
2022-11-22T02:10:04.346Z,99261.63
2022-11-22T02:12:36.777Z,99260.80
2022-11-22T02:15:06.725Z,99258.12
2022-11-22T02:17:35.354Z,99258.91
2022-11-22T02:20:05.588Z,99255.20
2022-11-22T02:22:34.194Z,99252.09
2022-11-22T02:25:20.786Z,99254.33
2022-11-22T02:27:51.254Z,99253.65
2022-11-22T02:30:20.155Z,99250.11
2022-11-22T02:32:51.075Z,99248.72
2022-11-22T02:35:23.405Z,99248.09
2022-11-22T02:37:57.485Z,99252.20
2022-11-22T02:40:28.232Z,99250.56
2022-11-22T02:43:03.496Z,99250.63
2022-11-22T02:45:32.254Z,99253.05
2022-11-22T02:48:12.873Z,99251.08
2022-11-22T02:50:41.988Z,99244.59
2022-11-22T02:53:12.187Z,99239.93
2022-11-22T02:55:42.116Z,99235.91
2022-11-22T02:58:11.215Z,99229.45
2022-11-22T03:00:44.695Z,99228.64
2022-11-22T03:03:15.776Z,99226.33
2022-11-22T03:05:45.351Z,99227.83
2022-11-22T03:08:15.442Z,99233.08
2022-11-22T03:10:44.956Z,99235.77
2022-11-22T03:13:13.636Z,99230.44
2022-11-22T03:15:47.816Z,99225.66
2022-11-22T03:18:16.739Z,99220.31
2022-11-22T03:20:46.524Z,99220.59
2022-11-22T03:23:19.498Z,99222.41
2022-11-22T03:25:51.087Z,99220.15
2022-11-22T03:28:20.239Z,99211.11
2022-11-22T03:30:51.394Z,99208.45
2022-11-22T03:33:21.988Z,99207.65
2022-11-22T03:35:58.966Z,99210.28
2022-11-22T03:38:29.290Z,99217.02
2022-11-22T03:40:59.761Z,99227.77
2022-11-22T03:44:45.646Z,99228.14
2022-11-22T03:47:15.947Z,99231.51
2022-11-22T03:49:46.296Z,99229.16
2022-11-22T03:52:17.099Z,99230.07
2022-11-22T03:54:47.401Z,99233.15
2022-11-22T03:57:18.572Z,99235.66
2022-11-22T03:59:50.052Z,99232.45
2022-11-22T04:02:21.245Z,99228.23
2022-11-22T04:04:54.260Z,99224.98
2022-11-22T04:07:26.293Z,99224.00
2022-11-22T04:09:57.253Z,99222.33
2022-11-22T04:12:27.443Z,99220.80
2022-11-22T04:15:07.721Z,99223.95
2022-11-22T04:17:45.175Z,99226.10
2022-11-22T04:20:41.654Z,99230.51
2022-11-22T04:23:17.663Z,99234.20
2022-11-22T04:25:51.918Z,99241.88
2022-11-22T04:28:47.070Z,99241.51
2022-11-22T04:31:34.186Z,99240.95
2022-11-22T04:34:05.444Z,99244.05
2022-11-22T04:36:35.351Z,99247.52
2022-11-22T04:39:04.410Z,99250.89
2022-11-22T04:41:33.731Z,99253.63
2022-11-22T04:44:21.350Z,99252.38
2022-11-22T04:46:51.098Z,99256.42
2022-11-22T04:49:20.885Z,99263.46
2022-11-22T04:52:08.291Z,99267.01
2022-11-22T04:54:37.194Z,99262.90
2022-11-22T04:57:05.983Z,99264.88
2022-11-22T04:59:34.626Z,99269.15
2022-11-22T05:02:03.765Z,99267.48
2022-11-22T05:04:33.960Z,99267.55
2022-11-22T05:07:05.225Z,99269.14
2022-11-22T05:09:34.572Z,99267.44
2022-11-22T05:12:07.549Z,99264.17
2022-11-22T05:14:36.643Z,99267.81
2022-11-22T05:17:05.866Z,99267.02
2022-11-22T05:19:36.671Z,99264.54
2022-11-22T05:22:05.823Z,99266.16
2022-11-22T05:24:34.852Z,99268.87
2022-11-22T05:27:04.124Z,99268.66
2022-11-22T05:29:39.072Z,99271.84
2022-11-22T05:32:18.172Z,99274.10
2022-11-22T05:34:49.133Z,99277.20
2022-11-22T05:37:17.895Z,99274.41
2022-11-22T05:39:47.053Z,99273.92
2022-11-22T05:42:16.200Z,99280.09
2022-11-22T05:44:45.103Z,99278.00
2022-11-22T05:47:15.615Z,99280.55
2022-11-22T05:49:47.733Z,99283.96
2022-11-22T05:52:18.429Z,99280.94
2022-11-22T05:54:47.476Z,99284.36
2022-11-22T05:57:16.242Z,99283.80
2022-11-22T05:59:45.524Z,99280.01
2022-11-22T06:02:14.741Z,99275.60
2022-11-22T06:04:45.297Z,99278.39
2022-11-22T06:07:15.744Z,99278.92
2022-11-22T06:09:44.854Z,99283.69
2022-11-22T06:12:14.923Z,99292.56
2022-11-22T06:14:46.432Z,99294.84
2022-11-22T06:17:15.244Z,99296.40
2022-11-22T06:19:46.927Z,99301.27
2022-11-22T06:22:16.053Z,99312.89
2022-11-22T06:24:45.902Z,99314.52
2022-11-22T06:27:16.942Z,99317.19
2022-11-22T06:29:46.165Z,99320.61
2022-11-22T06:32:15.308Z,99322.14
2022-11-22T06:34:45.003Z,99318.61
2022-11-22T06:37:16.874Z,99313.11
2022-11-22T06:39:46.948Z,99315.86
2022-11-22T06:42:19.234Z,99312.54
2022-11-22T06:44:49.625Z,99314.44
2022-11-22T06:47:18.436Z,99315.07
2022-11-22T06:49:47.889Z,99315.95
2022-11-22T06:52:18.020Z,99315.74
2022-11-22T06:54:48.166Z,99323.70
2022-11-22T06:57:18.385Z,99329.93
2022-11-22T06:59:48.391Z,99335.30
2022-11-22T07:02:18.474Z,99331.55
2022-11-22T07:05:17.223Z,99334.44
2022-11-22T07:07:36.610Z,99340.42
2022-11-22T07:10:06.919Z,99342.28
2022-11-22T07:12:35.603Z,99345.20
2022-11-22T07:15:05.194Z,99346.17
2022-11-22T07:17:34.773Z,99350.10
2022-11-22T07:20:04.393Z,99355.73
2022-11-22T07:22:34.824Z,99361.23
2022-11-22T07:25:03.638Z,99361.80
2022-11-22T07:27:34.254Z,99362.75
2022-11-22T07:30:06.203Z,99359.80
2022-11-22T07:32:37.930Z,99358.48
2022-11-22T07:35:07.024Z,99358.29
2022-11-22T07:37:35.816Z,99356.47
2022-11-22T07:40:05.168Z,99354.50
2022-11-22T07:42:35.227Z,99352.00
2022-11-22T07:45:10.958Z,99353.59
2022-11-22T07:47:43.095Z,99355.61
2022-11-22T07:50:12.519Z,99356.79
2022-11-22T07:52:41.384Z,99360.90
2022-11-22T07:55:14.298Z,99361.20
2022-11-22T07:57:43.748Z,99359.88
2022-11-22T08:00:14.626Z,99355.38
2022-11-22T08:02:43.754Z,99355.46
2022-11-22T08:05:13.386Z,99355.04
2022-11-22T08:07:50.566Z,99349.86
2022-11-22T08:10:20.431Z,99352.98
2022-11-22T08:12:49.813Z,99360.14
2022-11-22T08:15:19.115Z,99362.15
2022-11-22T08:17:47.945Z,99360.23
2022-11-22T08:20:16.735Z,99361.42
2022-11-22T08:22:46.383Z,99360.52
2022-11-22T08:25:17.758Z,99370.22
2022-11-22T08:27:47.955Z,99375.42
2022-11-22T09:13:23.827Z,99375.83
2022-11-22T09:20:42.986Z,99363.20
2022-11-22T09:30:00.943Z,99365.28
2022-11-22T09:32:34.409Z,99366.31
2022-11-22T09:36:50.281Z,99377.14
2022-11-22T09:44:03.603Z,99376.66
2022-11-22T09:47:18.691Z,99380.38
2022-11-22T09:50:24.013Z,99388.88
2022-11-22T09:53:29.131Z,99392.23
2022-11-22T09:56:20.062Z,99390.77
2022-11-22T09:59:21.300Z,99405.27
2022-11-22T10:02:28.566Z,99400.19
2022-11-22T10:05:13.753Z,99393.35
2022-11-22T10:07:57.627Z,99395.92
2022-11-22T10:11:02.291Z,99397.56
2022-11-22T10:14:02.866Z,99399.98
2022-11-22T10:17:00.089Z,99400.67
2022-11-22T10:19:56.909Z,99399.19
2022-11-22T10:25:54.436Z,99413.54
2022-11-22T10:29:10.707Z,99419.85
2022-11-22T10:32:07.576Z,99415.97
2022-11-22T10:35:19.247Z,99410.96
2022-11-22T10:38:30.012Z,99409.29
2022-11-22T10:41:38.379Z,99404.02
2022-11-22T10:51:26.240Z,99394.86
2022-11-22T10:54:32.663Z,99400.27
2022-11-22T10:57:30.959Z,99394.68
2022-11-22T11:00:20.080Z,99390.77
2022-11-22T11:03:04.155Z,99385.31
2022-11-22T11:10:03.390Z,99377.30
2022-11-22T11:12:39.347Z,99377.05
2022-11-22T11:15:27.532Z,99380.73
2022-11-22T11:18:11.825Z,99376.98
2022-11-22T11:20:54.536Z,99375.70
2022-11-22T11:23:26.979Z,99372.02
2022-11-22T11:26:26.942Z,99362.79
2022-11-22T11:29:37.420Z,99357.95
2022-11-22T11:32:19.908Z,99355.88
2022-11-22T11:35:07.695Z,99346.23
2022-11-22T11:37:39.966Z,99336.87
2022-11-22T11:40:29.538Z,99334.23
2022-11-22T11:43:23.902Z,99328.67
2022-11-22T11:46:14.937Z,99323.45
2022-11-22T11:48:51.455Z,99324.23
2022-11-22T11:51:43.025Z,99323.89
2022-11-22T11:54:23.227Z,99323.21
2022-11-22T11:57:00.728Z,99324.65
2022-11-22T11:59:39.509Z,99318.05
2022-11-22T12:02:36.239Z,99316.70
2022-11-22T12:05:27.206Z,99314.44
2022-11-22T12:22:07.326Z,99322.91
2022-11-22T12:25:30.505Z,99320.88
2022-11-22T12:27:52.045Z,99319.27
2022-11-22T12:30:24.209Z,99324.30
2022-11-22T12:33:04.237Z,99325.42
2022-11-22T12:35:43.205Z,99322.95
2022-11-22T12:38:21.301Z,99322.67
2022-11-22T12:40:55.058Z,99324.23
2022-11-22T12:44:02.653Z,99325.81
2022-11-22T12:46:56.405Z,99325.02
2022-11-22T12:49:48.028Z,99326.70
2022-11-22T12:52:27.680Z,99327.84
2022-11-22T12:59:27.065Z,99334.70
2022-11-22T13:02:22.097Z,99343.45
2022-11-22T13:09:18.201Z,99341.40
2022-11-22T13:11:58.466Z,99343.79
2022-11-22T13:14:43.988Z,99342.90
2022-11-22T13:17:15.489Z,99342.59
2022-11-22T13:20:52.070Z,99343.26
2022-11-22T13:23:38.908Z,99344.61
2022-11-22T13:26:39.559Z,99346.05
2022-11-22T13:29:35.730Z,99337.91
2022-11-22T13:32:13.344Z,99336.67
2022-11-22T13:35:07.804Z,99340.80
2022-11-22T13:37:44.853Z,99336.29
2022-11-22T13:40:15.680Z,99335.55
2022-11-22T13:42:44.425Z,99339.79
2022-11-22T13:45:25.465Z,99340.26
2022-11-22T13:47:55.142Z,99351.98
2022-11-22T13:50:51.266Z,99351.35
2022-11-22T13:54:14.388Z,99349.55
2022-11-22T13:57:00.946Z,99357.01
2022-11-22T13:59:36.581Z,99365.45
2022-11-22T14:02:22.779Z,99363.83
2022-11-22T14:04:59.125Z,99368.36
2022-11-22T14:07:34.443Z,99362.11
2022-11-22T14:10:23.824Z,99358.25
2022-11-22T14:13:13.762Z,99365.95
2022-11-22T14:15:49.117Z,99368.80
2022-11-22T14:18:52.663Z,99367.44
2022-11-22T14:21:41.197Z,99372.15
2022-11-22T14:24:35.564Z,99372.03
2022-11-22T14:27:15.284Z,99369.96
2022-11-22T14:30:03.100Z,99367.60
2022-11-22T14:32:51.542Z,99367.76
2022-11-22T14:36:06.410Z,99369.67
2022-11-22T14:38:38.540Z,99376.77
2022-11-22T14:41:26.164Z,99375.96
2022-11-22T14:44:08.277Z,99371.13
2022-11-22T14:46:53.868Z,99368.94
2022-11-22T14:49:39.819Z,99367.69
2022-11-22T14:52:43.136Z,99365.10
2022-11-22T14:55:21.319Z,99367.30
2022-11-22T14:58:15.844Z,99366.39
2022-11-22T15:00:57.668Z,99364.27
2022-11-22T15:09:13.086Z,99361.13
2022-11-22T15:09:21.289Z,99361.04
2022-11-22T15:10:22.697Z,99361.40
2022-11-22T15:13:30.500Z,99354.38
2022-11-22T16:01:19.720Z,99360.45
2022-11-22T16:03:56.351Z,99363.64
2022-11-22T16:06:38.723Z,99361.77
2022-11-22T16:09:35.164Z,99365.83
2022-11-22T16:12:35.675Z,99361.67
2022-11-22T16:15:40.056Z,99361.37
2022-11-22T16:18:28.307Z,99356.45
2022-11-22T16:21:03.819Z,99354.33
2022-11-22T16:23:37.097Z,99351.85
2022-11-22T16:26:32.345Z,99358.22
2022-11-22T16:29:41.493Z,99359.73
2022-11-22T16:32:19.748Z,99362.35
2022-11-22T16:34:51.612Z,99361.83
2022-11-22T16:37:38.397Z,99370.16
2022-11-22T16:40:24.179Z,99366.05
2022-11-22T16:43:24.163Z,99375.21
2022-11-22T16:45:53.462Z,99376.57
2022-11-22T16:48:32.920Z,99382.39
2022-11-22T16:51:35.898Z,99394.72
2022-11-22T16:54:28.817Z,99394.80
2022-11-22T16:57:34.330Z,99394.84
2022-11-22T17:01:33.340Z,99393.14
2022-11-22T17:04:37.885Z,99390.27
2022-11-22T17:07:13.004Z,99386.03
2022-11-22T17:09:43.956Z,99387.89
2022-11-22T17:12:33.997Z,99379.43
2022-11-22T17:15:05.720Z,99383.57
2022-11-22T17:17:40.765Z,99386.06
2022-11-22T17:20:11.545Z,99382.33
2022-11-22T17:22:43.720Z,99387.13
2022-11-22T17:25:18.911Z,99383.92
2022-11-22T17:27:54.077Z,99385.23
2022-11-22T17:30:23.779Z,99385.44
2022-11-22T17:32:59.917Z,99382.83
2022-11-22T17:35:33.281Z,99375.84
2022-11-22T17:38:12.423Z,99382.94
2022-11-22T17:40:41.873Z,99385.88
2022-11-22T17:43:11.109Z,99394.05
2022-11-22T17:45:44.256Z,99395.64
2022-11-22T17:48:13.732Z,99391.01
2022-11-22T17:50:42.242Z,99394.29
2022-11-22T17:53:12.137Z,99399.23
2022-11-22T17:56:09.061Z,99396.08
2022-11-22T17:58:34.095Z,99393.88
2022-11-22T18:01:11.252Z,99399.42
2022-11-22T18:03:50.716Z,99399.10
2022-11-22T18:06:49.736Z,99401.27
2022-11-22T18:09:18.416Z,99401.16
2022-11-22T18:11:48.247Z,99406.14
2022-11-22T18:14:19.347Z,99410.23
2022-11-22T18:16:48.508Z,99413.05
2022-11-22T18:19:29.060Z,99412.36
2022-11-22T18:42:04.590Z,99421.77
2022-11-22T18:48:13.548Z,99426.98
2022-11-22T18:50:50.174Z,99428.03
2022-11-22T18:53:25.389Z,99429.23
2022-11-22T18:56:11.076Z,99431.08
2022-11-22T18:58:49.376Z,99432.56
2022-11-22T19:01:27.307Z,99431.09
2022-11-22T19:04:05.018Z,99422.20
2022-11-22T19:06:48.386Z,99425.77
2022-11-22T19:09:25.542Z,99426.69
2022-11-22T19:12:09.275Z,99426.65
2022-11-22T19:18:17.393Z,99431.96
2022-11-22T19:21:42.395Z,99431.90
2022-11-22T19:24:29.105Z,99427.96
2022-11-22T19:27:06.262Z,99436.31
2022-11-22T19:29:47.005Z,99437.02
2022-11-22T19:32:23.260Z,99435.19
2022-11-22T19:34:57.697Z,99437.80
2022-11-22T19:37:36.735Z,99439.58
2022-11-22T19:40:19.658Z,99443.10
2022-11-22T19:43:16.109Z,99448.95
2022-11-22T19:46:11.241Z,99446.86
2022-11-22T19:49:06.491Z,99454.65
2022-11-22T19:51:41.717Z,99455.11
2022-11-22T19:54:19.428Z,99455.77
2022-11-22T19:56:58.938Z,99461.04
2022-11-22T20:00:51.451Z,99464.54
2022-11-22T20:03:27.778Z,99469.36
2022-11-22T20:06:06.556Z,99472.85
2022-11-22T20:08:54.029Z,99468.11
2022-11-22T20:14:22.659Z,99473.45
2022-11-22T20:20:17.998Z,99477.09
2022-11-22T20:23:01.447Z,99472.84
2022-11-22T20:25:39.736Z,99468.77
2022-11-22T20:29:12.389Z,99469.81
2022-11-22T20:32:06.802Z,99469.83
2022-11-22T20:38:28.649Z,99464.55
2022-11-22T20:41:10.397Z,99457.99
2022-11-22T20:43:46.934Z,99455.80
2022-11-22T20:46:38.735Z,99450.98
2022-11-22T20:49:13.271Z,99451.80
2022-11-22T20:52:23.657Z,99455.91
2022-11-22T20:55:19.812Z,99457.16
2022-11-22T20:58:06.818Z,99457.75
2022-11-22T21:00:56.349Z,99455.36
2022-11-22T21:03:51.014Z,99455.17
2022-11-22T21:06:59.984Z,99456.05
2022-11-22T21:09:59.675Z,99469.37
2022-11-22T21:12:41.738Z,99467.33
2022-11-22T21:15:38.055Z,99471.54
2022-11-22T21:18:25.566Z,99469.53
2022-11-22T21:21:39.598Z,99464.13
2022-11-22T21:24:13.610Z,99465.14
2022-11-22T21:26:55.936Z,99469.60
2022-11-22T21:29:31.479Z,99473.88
2022-11-22T21:32:06.707Z,99485.23
2022-11-22T21:34:54.188Z,99484.83
2022-11-22T21:37:54.407Z,99476.77
2022-11-22T21:40:37.947Z,99485.88
2022-11-22T21:43:14.872Z,99484.89
2022-11-22T22:02:30.581Z,99505.41
2022-11-22T22:05:11.859Z,99500.05
2022-11-22T22:07:59.903Z,99494.16
